Time;durP1;ratioP1;P1;durP2;ratioP2;P2;SDS_P1;SDS_P2;PMS_P1;PMS_P2;Temp;Humidity;BMP_temperature;BMP_pressure;BME280_temperature;BME280_humidity;BME280_pressure;Samples;Min_cycle;Max_cycle;Signal;HPM_P1;HPM_P2
2021/07/18 00:01:05;;;;;;;21.90;8.28;;;;;;;20.37;100.00;100153.84;1774044;79;23504;-38
2021/07/18 00:03:32;;;;;;;34.60;10.60;;;;;;;20.36;100.00;100151.70;1751753;81;20991;-38
2021/07/18 00:06:00;;;;;;;48.25;12.00;;;;;;;20.40;100.00;100154.96;1733125;81;21157;-39
2021/07/18 00:08:27;;;;;;;33.83;10.05;;;;;;;20.44;100.00;100152.98;1686867;84;21027;-40
2021/07/18 00:10:56;;;;;;;99.17;12.75;;;;;;;20.48;100.00;100152.70;1690518;84;21552;-39
2021/07/18 00:13:25;;;;;;;51.08;10.00;;;;;;;20.52;100.00;100146.75;1677631;84;21058;-40
2021/07/18 00:15:53;;;;;;;24.82;9.20;;;;;;;20.56;100.00;100146.92;1645610;85;20959;-40
2021/07/18 00:18:20;;;;;;;42.43;10.95;;;;;;;20.59;100.00;100142.80;1674016;84;21064;-41
2021/07/18 00:20:50;;;;;;;35.23;10.28;;;;;;;20.59;100.00;100145.43;1687743;84;20960;-40
2021/07/18 00:23:18;;;;;;;26.70;8.05;;;;;;;20.61;100.00;100141.37;1655708;85;22302;-41
2021/07/18 00:25:46;;;;;;;46.28;11.00;;;;;;;20.64;100.00;100142.48;1668524;84;20990;-40
2021/07/18 00:28:13;;;;;;;26.42;8.70;;;;;;;20.65;100.00;100141.08;1677757;84;21046;-40
2021/07/18 00:30:41;;;;;;;58.25;10.80;;;;;;;20.65;100.00;100141.53;1658585;85;21220;-41
2021/07/18 00:33:08;;;;;;;57.33;11.35;;;;;;;20.63;100.00;100142.97;1675796;84;20959;-39
2021/07/18 00:35:35;;;;;;;39.15;10.85;;;;;;;20.61;100.00;100147.48;1694560;83;21004;-39
2021/07/18 00:38:02;;;;;;;56.23;9.83;;;;;;;20.59;100.00;100149.37;1684376;84;22215;-37
2021/07/18 00:40:29;;;;;;;27.50;8.78;;;;;;;20.57;100.00;100151.23;1689881;84;20979;-38
2021/07/18 00:42:57;;;;;;;31.33;8.53;;;;;;;20.57;100.00;100148.60;1665437;85;21275;-38
2021/07/18 00:45:24;;;;;;;20.92;7.87;;;;;;;20.58;100.00;100149.46;1685604;84;20955;-38
2021/07/18 00:47:51;;;;;;;19.48;8.20;;;;;;;20.55;100.00;100147.03;1665368;85;21116;-38
2021/07/18 00:50:17;;;;;;;14.73;7.45;;;;;;;20.53;100.00;100147.12;1662264;84;21151;-40
2021/07/18 00:52:44;;;;;;;20.37;7.58;;;;;;;20.51;100.00;100149.87;1665387;85;21066;-39
2021/07/18 00:55:11;;;;;;;15.30;8.38;;;;;;;20.51;100.00;100149.01;1664285;85;21795;-39
2021/07/18 00:57:38;;;;;;;18.55;8.63;;;;;;;20.52;100.00;100144.12;1678072;84;21159;-39
2021/07/18 01:00:07;;;;;;;16.90;9.00;;;;;;;20.52;100.00;100148.92;1668678;84;21079;-39
2021/07/18 01:02:34;;;;;;;18.57;8.08;;;;;;;20.54;100.00;100148.80;1655574;86;21060;-39
2021/07/18 01:05:01;;;;;;;46.18;10.08;;;;;;;20.54;100.00;100142.23;1631080;86;21012;-38
2021/07/18 01:07:27;;;;;;;39.85;9.80;;;;;;;20.54;100.00;100142.23;1599524;87;21033;-38
2021/07/18 01:09:54;;;;;;;34.60;8.95;;;;;;;20.53;100.00;100143.17;1658496;86;20941;-39
2021/07/18 01:12:21;;;;;;;45.75;9.65;;;;;;;20.53;100.00;100142.72;1672928;85;20967;-38
2021/07/18 01:14:48;;;;;;;30.15;8.33;;;;;;;20.53;100.00;100141.86;1624722;86;21149;-40
2021/07/18 01:17:16;;;;;;;12.50;7.45;;;;;;;20.51;100.00;100141.98;1654072;86;21091;-38
2021/07/18 01:19:42;;;;;;;17.42;8.08;;;;;;;20.47;100.00;100138.33;1709901;83;21069;-39
2021/07/18 01:22:09;;;;;;;14.90;8.03;;;;;;;20.42;100.00;100135.16;1706088;83;20948;-39
2021/07/18 01:24:35;;;;;;;11.35;7.30;;;;;;;20.38;100.00;100140.62;1706049;83;21043;-39
2021/07/18 01:27:05;;;;;;;23.25;9.13;;;;;;;20.35;100.00;100139.52;1701609;83;20976;-39
2021/07/18 01:29:32;;;;;;;13.62;8.38;;;;;;;20.34;100.00;100144.40;1659584;85;21265;-39
2021/07/18 01:31:59;;;;;;;14.38;8.00;;;;;;;20.34;100.00;100141.77;1655900;85;20996;-38
2021/07/18 01:34:25;;;;;;;17.90;8.13;;;;;;;20.33;100.00;100128.72;1694503;83;20966;-38
2021/07/18 01:36:52;;;;;;;18.27;7.70;;;;;;;20.30;100.00;100127.60;1704494;83;21576;-38
2021/07/18 01:39:19;;;;;;;12.18;7.62;;;;;;;20.24;100.00;100124.44;1649950;85;21641;-38
2021/07/18 01:41:47;;;;;;;15.08;8.63;;;;;;;20.20;100.00;100125.55;1695430;83;21555;-38
2021/07/18 01:44:14;;;;;;;22.02;8.83;;;;;;;20.15;100.00;100122.86;1704080;83;21144;-38
2021/07/18 01:46:41;;;;;;;12.65;8.85;;;;;;;20.12;100.00;100121.75;1673169;85;21000;-38
2021/07/18 01:49:08;;;;;;;17.17;9.00;;;;;;;20.06;100.00;100126.43;1673161;85;21005;-37
2021/07/18 01:51:35;;;;;;;13.88;8.15;;;;;;;20.02;100.00;100126.26;1708470;83;20993;-38
2021/07/18 01:54:02;;;;;;;18.27;8.53;;;;;;;19.99;100.00;100123.83;1708692;83;21053;-38
2021/07/18 01:56:29;;;;;;;15.08;8.60;;;;;;;19.98;100.00;100120.00;1673218;85;22005;-39
2021/07/18 01:58:56;;;;;;;23.45;9.15;;;;;;;20.00;100.00;100122.06;1653759;84;20937;-38
2021/07/18 02:01:28;;;;;;;24.27;9.65;;;;;;;20.00;100.00;100117.64;1672399;84;21062;-38
2021/07/18 02:03:55;;;;;;;12.63;8.68;;;;;;;19.99;100.00;100125.14;1672006;85;21641;-38
2021/07/18 02:06:26;;;;;;;18.95;9.20;;;;;;;20.00;100.00;100121.58;1671734;85;21523;-38
2021/07/18 02:08:53;;;;;;;22.17;10.13;;;;;;;20.01;100.00;100124.58;1672883;85;21367;-39
2021/07/18 02:11:21;;;;;;;20.20;9.68;;;;;;;20.00;100.00;100122.89;1665526;85;20983;-38
2021/07/18 02:13:52;;;;;;;17.95;9.00;;;;;;;19.99;100.00;100129.57;1672272;85;21076;-39
2021/07/18 02:16:19;;;;;;;14.75;9.00;;;;;;;19.95;100.00;100119.72;1673354;84;21039;-39
2021/07/18 02:18:48;;;;;;;14.98;8.73;;;;;;;19.92;100.00;100122.54;1667248;84;21032;-39
2021/07/18 02:21:16;;;;;;;16.05;8.35;;;;;;;19.90;100.00;100125.22;1670921;85;21183;-39
2021/07/18 02:23:43;;;;;;;14.95;9.53;;;;;;;19.90;100.00;100129.64;1666829;84;21526;-39
2021/07/18 02:26:09;;;;;;;25.85;9.78;;;;;;;19.91;100.00;100127.42;1702458;83;20991;-39
2021/07/18 02:28:36;;;;;;;36.58;9.45;;;;;;;19.91;100.00;100130.05;1707971;83;20964;-39
2021/07/18 02:31:04;;;;;;;23.20;9.58;;;;;;;19.94;100.00;100131.98;1673592;85;21048;-39
2021/07/18 02:33:32;;;;;;;16.60;9.88;;;;;;;20.02;100.00;100138.56;1653369;86;21161;-39
2021/07/18 02:35:59;;;;;;;23.55;8.90;;;;;;;20.06;100.00;100135.63;1694248;83;22470;-38
2021/07/18 02:38:26;;;;;;;17.02;8.90;;;;;;;20.15;100.00;100144.70;1691190;83;21093;-39
2021/07/18 02:40:54;;;;;;;16.27;10.55;;;;;;;20.20;100.00;100144.42;1693910;83;21208;-39
2021/07/18 02:43:20;;;;;;;20.40;9.43;;;;;;;20.21;100.00;100138.23;1696084;83;22310;-40
2021/07/18 02:45:47;;;;;;;20.35;10.03;;;;;;;20.20;100.00;100134.74;1709578;83;21754;-39
2021/07/18 02:48:13;;;;;;;10.78;9.63;;;;;;;20.21;100.00;100131.20;1672683;85;20957;-39
2021/07/18 02:50:41;;;;;;;28.25;11.12;;;;;;;20.24;100.00;100128.37;1655011;86;21495;-38
2021/07/18 02:53:08;;;;;;;17.32;9.98;;;;;;;20.28;100.00;100134.74;1664558;85;21538;-39
2021/07/18 02:55:36;;;;;;;16.35;10.15;;;;;;;20.32;100.00;100144.94;1700733;83;21622;-40
2021/07/18 02:58:02;;;;;;;16.35;10.38;;;;;;;20.36;100.00;100141.20;1709324;83;21322;-38
2021/07/18 03:00:29;;;;;;;17.70;10.15;;;;;;;20.42;100.00;100134.67;1706457;83;21462;-38
2021/07/18 03:02:55;;;;;;;23.87;9.70;;;;;;;20.47;100.00;100139.64;1696231;84;21534;-39
2021/07/18 03:05:22;;;;;;;14.13;9.38;;;;;;;20.53;100.00;100149.30;1688626;84;21203;-38
2021/07/18 03:07:49;;;;;;;18.12;9.40;;;;;;;20.59;100.00;100145.43;1697629;84;21193;-39
2021/07/18 03:10:17;;;;;;;11.28;9.28;;;;;;;20.65;100.00;100139.77;1705750;84;22067;-38
2021/07/18 03:12:44;;;;;;;22.93;9.75;;;;;;;20.72;100.00;100136.27;1706707;83;21015;-40
2021/07/18 03:15:13;;;;;;;16.85;10.72;;;;;;;20.81;99.64;100133.50;1704576;84;20983;-39
2021/07/18 03:17:40;;;;;;;16.17;10.45;;;;;;;20.87;99.23;100135.74;1689823;84;21751;-40
2021/07/18 03:20:10;;;;;;;22.45;10.10;;;;;;;20.93;98.73;100136.64;1695053;84;21553;-39
2021/07/18 03:22:36;;;;;;;23.92;9.08;;;;;;;21.00;98.44;100138.39;1706246;84;21752;-39
2021/07/18 03:25:06;;;;;;;14.73;9.63;;;;;;;21.05;97.85;100136.74;1699085;84;20968;-39
2021/07/18 03:27:32;;;;;;;17.80;9.48;;;;;;;21.13;97.33;100135.77;1659614;84;20921;-39
2021/07/18 03:29:59;;;;;;;15.60;9.58;;;;;;;21.19;96.78;100140.61;1703060;83;21039;-39
2021/07/18 03:32:25;;;;;;;13.48;9.28;;;;;;;21.28;96.60;100148.81;1696348;83;21525;-39
2021/07/18 03:34:53;;;;;;;14.95;9.13;;;;;;;21.35;96.28;100146.97;1693236;84;21946;-39
2021/07/18 03:37:20;;;;;;;15.05;8.40;;;;;;;21.44;96.05;100152.08;1698833;83;20952;-38
2021/07/18 03:39:46;;;;;;;12.40;8.95;;;;;;;21.52;95.81;100152.87;1678503;83;20999;-38
2021/07/18 03:42:13;;;;;;;15.28;9.33;;;;;;;21.60;95.56;100151.00;1687397;84;21074;-38
2021/07/18 03:44:40;;;;;;;15.25;8.60;;;;;;;21.68;95.40;100153.98;1679314;85;20952;-39
2021/07/18 03:47:07;;;;;;;12.37;8.98;;;;;;;21.75;94.69;100159.19;1700776;84;21526;-39
2021/07/18 03:49:34;;;;;;;11.18;8.30;;;;;;;21.80;94.20;100159.70;1700243;84;21030;-39
2021/07/18 03:52:01;;;;;;;16.07;8.25;;;;;;;21.88;93.94;100157.84;1697589;83;21024;-40
2021/07/18 03:54:27;;;;;;;14.15;7.55;;;;;;;21.97;93.54;100156.35;1695460;82;21188;-39
2021/07/18 03:56:54;;;;;;;17.90;8.35;;;;;;;22.08;93.06;100155.09;1680630;84;20957;-40
2021/07/18 03:59:21;;;;;;;13.50;8.50;;;;;;;22.31;92.70;100159.18;1680673;84;21154;-39
2021/07/18 04:01:47;;;;;;;16.97;8.33;;;;;;;22.56;91.83;100157.41;1676112;84;21036;-39
2021/07/18 04:04:14;;;;;;;13.05;8.50;;;;;;;22.80;90.45;100152.13;1678403;84;21016;-39
2021/07/18 04:06:40;;;;;;;13.38;8.80;;;;;;;23.04;89.51;100147.73;1692347;82;21114;-38
2021/07/18 04:09:07;;;;;;;14.15;7.70;;;;;;;23.32;88.66;100149.61;1705273;84;21036;-39
2021/07/18 04:11:34;;;;;;;19.50;8.68;;;;;;;23.64;87.59;100146.28;1698239;83;21296;-38
2021/07/18 04:14:01;;;;;;;20.10;8.18;;;;;;;23.97;86.00;100148.52;1702295;83;21339;-39
2021/07/18 04:16:27;;;;;;;12.13;8.50;;;;;;;24.26;84.45;100149.33;1703190;84;20993;-39
2021/07/18 04:18:55;;;;;;;16.52;8.95;;;;;;;24.52;83.32;100141.91;1706702;84;21067;-39
2021/07/18 04:21:22;;;;;;;17.60;8.35;;;;;;;24.79;82.12;100148.55;1696971;83;20950;-39
2021/07/18 04:23:48;;;;;;;12.75;8.35;;;;;;;25.04;81.10;100143.84;1700449;83;21076;-39
2021/07/18 04:26:15;;;;;;;11.65;8.35;;;;;;;25.27;79.32;100149.45;1688909;84;21529;-39
2021/07/18 04:28:42;;;;;;;13.08;8.83;;;;;;;25.39;78.28;100152.39;1703943;84;21079;-39
2021/07/18 04:31:10;;;;;;;19.00;8.40;;;;;;;25.41;76.10;100150.45;1703325;83;21008;-39
2021/07/18 04:33:36;;;;;;;15.18;8.28;;;;;;;25.36;75.61;100156.60;1662481;84;20967;-39
2021/07/18 04:36:04;;;;;;;14.95;7.95;;;;;;;25.39;75.80;100149.74;1685510;84;21140;-39
2021/07/18 04:38:30;;;;;;;12.63;8.40;;;;;;;25.49;75.86;100151.97;1658946;84;20956;-40
2021/07/18 04:40:57;;;;;;;16.48;8.35;;;;;;;25.66;75.33;100148.34;1665635;85;21036;-41
2021/07/18 04:43:24;;;;;;;13.90;8.88;;;;;;;25.88;73.34;100143.78;1690311;84;21055;-40
2021/07/18 04:45:51;;;;;;;12.33;9.08;;;;;;;26.04;72.61;100142.78;1705752;83;21087;-40
2021/07/18 04:48:19;;;;;;;17.75;8.03;;;;;;;26.21;71.80;100142.63;1707096;84;20980;-40
2021/07/18 04:50:47;;;;;;;11.78;8.33;;;;;;;26.33;72.63;100145.17;1691836;83;21034;-39
2021/07/18 04:53:13;;;;;;;16.25;8.95;;;;;;;26.56;72.33;100146.22;1697624;83;20928;-40
2021/07/18 04:55:40;;;;;;;11.63;7.72;;;;;;;26.83;71.47;100146.81;1696964;83;20969;-40
2021/07/18 04:58:06;;;;;;;9.53;7.40;;;;;;;27.08;70.89;100140.58;1679889;84;21069;-39
2021/07/18 05:00:33;;;;;;;9.73;7.62;;;;;;;27.29;70.29;100147.52;1705997;83;21218;-40
2021/07/18 05:02:59;;;;;;;12.55;8.40;;;;;;;27.31;68.78;100154.84;1712983;83;20957;-40
2021/07/18 05:05:26;;;;;;;11.25;7.67;;;;;;;27.37;67.79;100159.09;1707204;82;20959;-40
2021/07/18 05:07:55;;;;;;;11.22;8.13;;;;;;;27.50;66.92;100157.91;1711173;82;21035;-39
2021/07/18 05:10:23;;;;;;;14.78;7.92;;;;;;;27.65;67.42;100156.48;1681343;85;21554;-40
2021/07/18 05:12:51;;;;;;;9.13;7.65;;;;;;;27.87;65.20;100153.09;1674181;85;21154;-40
2021/07/18 05:15:19;;;;;;;11.48;7.97;;;;;;;27.98;63.90;100154.71;1670494;85;21044;-39
2021/07/18 05:17:45;;;;;;;12.00;7.70;;;;;;;28.16;63.87;100160.08;1636504;86;21025;-39
2021/07/18 05:20:13;;;;;;;9.75;7.47;;;;;;;28.33;62.62;100154.93;1685093;84;21019;-39
2021/07/18 05:22:40;;;;;;;18.37;7.85;;;;;;;28.48;62.81;100161.89;1626126;86;21099;-39
2021/07/18 05:25:10;;;;;;;10.30;7.67;;;;;;;28.68;62.93;100150.09;1679201;85;21058;-38
2021/07/18 05:27:40;;;;;;;12.88;6.87;;;;;;;28.89;62.74;100147.58;1653595;85;20982;-39
2021/07/18 05:30:11;;;;;;;16.55;7.37;;;;;;;29.11;62.86;100151.58;1713593;83;21274;-39
2021/07/18 05:32:38;;;;;;;12.45;7.60;;;;;;;29.22;62.67;100157.14;1698709;83;21516;-39
2021/07/18 05:35:07;;;;;;;13.18;7.65;;;;;;;29.39;60.98;100153.20;1700456;83;21045;-38
2021/07/18 05:37:34;;;;;;;11.22;7.47;;;;;;;29.48;61.34;100149.64;1634917;86;21078;-39
2021/07/18 05:40:04;;;;;;;15.30;7.65;;;;;;;29.64;60.29;100162.20;1663707;84;21007;-39
2021/07/18 05:42:30;;;;;;;8.00;7.20;;;;;;;29.72;60.32;100160.06;1679413;85;21069;-39
2021/07/18 05:44:58;;;;;;;13.88;7.30;;;;;;;29.59;61.07;100162.33;1680938;85;20936;-40
2021/07/18 05:47:25;;;;;;;13.25;6.62;;;;;;;29.66;59.30;100160.20;1687387;85;20983;-39
2021/07/18 05:49:53;;;;;;;7.53;6.83;;;;;;;29.76;59.64;100158.74;1661800;85;21072;-39
2021/07/18 05:52:21;;;;;;;8.55;6.70;;;;;;;29.76;59.72;100154.74;1660703;84;21046;-39
2021/07/18 05:54:47;;;;;;;7.80;7.10;;;;;;;29.80;59.64;100154.75;1662705;84;21011;-40
2021/07/18 05:57:14;;;;;;;7.85;7.00;;;;;;;29.78;59.74;100157.23;1665641;85;21015;-39
2021/07/18 05:59:40;;;;;;;13.85;7.70;;;;;;;29.69;60.30;100159.06;1651987;86;21029;-40
2021/07/18 06:02:07;;;;;;;8.73;6.70;;;;;;;29.58;59.91;100157.52;1668518;85;21660;-39
2021/07/18 06:04:34;;;;;;;7.25;6.45;;;;;;;29.59;59.89;100159.66;1652683;85;21041;-40
2021/07/18 06:07:02;;;;;;;8.93;6.10;;;;;;;29.68;60.45;100152.02;1673095;85;21554;-40
2021/07/18 06:09:29;;;;;;;11.53;6.28;;;;;;;29.96;61.33;100157.14;1636859;86;21510;-39
2021/07/18 06:11:57;;;;;;;8.23;5.67;;;;;;;30.21;60.83;100162.56;1708545;83;21015;-39
2021/07/18 06:14:24;;;;;;;12.95;6.42;;;;;;;30.32;59.17;100161.41;1704840;83;22728;-40
2021/07/18 06:16:50;;;;;;;9.05;6.40;;;;;;;30.45;58.52;100158.25;1696468;83;20996;-41
2021/07/18 06:19:17;;;;;;;8.08;6.42;;;;;;;30.65;58.75;100156.11;1667440;85;21025;-40
2021/07/18 06:21:45;;;;;;;9.98;6.37;;;;;;;30.85;57.97;100156.59;1653873;86;21565;-40
2021/07/18 06:24:12;;;;;;;7.42;6.03;;;;;;;30.93;55.80;100156.56;1653689;86;20956;-40
2021/07/18 06:26:39;;;;;;;9.83;6.08;;;;;;;30.95;56.67;100157.27;1641741;85;21343;-40
2021/07/18 06:29:06;;;;;;;20.08;6.15;;;;;;;31.02;54.70;100153.38;1654491;86;21016;-40
2021/07/18 06:31:32;;;;;;;12.15;6.53;;;;;;;31.03;54.84;100160.91;1709593;83;21027;-39
2021/07/18 06:33:59;;;;;;;7.67;6.17;;;;;;;31.10;53.79;100160.55;1707910;83;21032;-39
2021/07/18 06:36:25;;;;;;;9.78;6.20;;;;;;;31.04;53.23;100164.73;1698972;83;20945;-40
2021/07/18 06:38:52;;;;;;;12.25;6.53;;;;;;;31.13;54.38;100162.88;1710199;83;21210;-39
2021/07/18 06:41:18;;;;;;;6.92;6.22;;;;;;;31.13;52.68;100161.55;1709454;83;20932;-40
2021/07/18 06:43:45;;;;;;;15.55;6.35;;;;;;;31.09;52.21;100162.41;1704328;83;21109;-39
2021/07/18 06:46:11;;;;;;;11.78;6.87;;;;;;;31.00;54.41;100162.59;1663802;85;21020;-39
2021/07/18 06:48:38;;;;;;;12.65;6.08;;;;;;;30.92;54.83;100164.77;1673052;85;21407;-39
2021/07/18 06:51:05;;;;;;;7.33;6.28;;;;;;;30.90;54.09;100171.60;1700459;83;21028;-40
2021/07/18 06:53:33;;;;;;;11.55;6.70;;;;;;;30.87;53.90;100167.94;1660886;85;20982;-39
2021/07/18 06:56:00;;;;;;;11.88;6.80;;;;;;;30.91;54.48;100159.91;1699579;83;21040;-39
2021/07/18 06:58:27;;;;;;;17.62;6.65;;;;;;;30.85;54.64;100163.78;1708853;83;20984;-38
2021/07/18 07:00:53;;;;;;;16.32;6.78;;;;;;;30.76;55.29;100168.30;1682275;83;21065;-39
2021/07/18 07:03:20;;;;;;;9.43;6.35;;;;;;;30.68;55.75;100163.78;1698761;83;21125;-39
2021/07/18 07:05:46;;;;;;;36.55;7.17;;;;;;;30.65;55.66;100154.77;1699165;83;21011;-38
2021/07/18 07:08:14;;;;;;;18.75;7.05;;;;;;;30.70;55.24;100156.44;1697841;83;21034;-43
2021/07/18 07:10:41;;;;;;;27.85;7.00;;;;;;;30.87;55.53;100152.42;1691902;83;20968;-39
2021/07/18 07:13:07;;;;;;;13.18;6.35;;;;;;;31.07;55.34;100146.20;1689478;83;22065;-40
2021/07/18 07:15:35;;;;;;;10.78;5.45;;;;;;;31.30;54.01;100150.34;1697069;84;21451;-40
2021/07/18 07:18:03;;;;;;;11.15;5.78;;;;;;;31.50;53.19;100151.27;1694593;83;21481;-39
2021/07/18 07:20:29;;;;;;;8.63;5.62;;;;;;;31.66;53.50;100152.55;1694214;83;21561;-39
2021/07/18 07:22:56;;;;;;;15.88;5.42;;;;;;;31.86;53.22;100155.33;1678709;83;21905;-39
2021/07/18 07:25:22;;;;;;;7.25;5.03;;;;;;;31.95;52.33;100159.61;1695430;83;21494;-38
2021/07/18 07:27:49;;;;;;;6.92;4.53;;;;;;;31.92;51.73;100161.30;1700687;83;22401;-41
2021/07/18 07:30:15;;;;;;;10.10;4.72;;;;;;;31.91;49.46;100160.98;1691067;83;21120;-39
2021/07/18 07:32:42;;;;;;;4.87;4.37;;;;;;;31.93;49.60;100162.48;1687290;83;21564;-39
2021/07/18 07:35:10;;;;;;;5.47;4.50;;;;;;;31.98;47.43;100161.11;1703603;84;21641;-39
2021/07/18 07:37:36;;;;;;;9.98;4.55;;;;;;;31.89;48.01;100163.00;1691724;84;20980;-39
2021/07/18 07:40:05;;;;;;;9.45;5.03;;;;;;;31.85;49.46;100159.86;1698629;83;21114;-40
2021/07/18 07:42:31;;;;;;;5.22;4.75;;;;;;;32.07;50.02;100162.23;1695173;84;20956;-39
2021/07/18 07:44:58;;;;;;;9.85;4.20;;;;;;;32.28;48.37;100160.76;1696596;83;20978;-40
2021/07/18 07:47:24;;;;;;;11.33;3.75;;;;;;;32.43;46.71;100166.69;1702808;84;21039;-39
2021/07/18 07:49:50;;;;;;;5.92;3.85;;;;;;;32.53;47.39;100163.28;1703534;83;20976;-39
2021/07/18 07:52:17;;;;;;;5.35;3.60;;;;;;;32.61;46.14;100161.05;1706833;83;21138;-40
2021/07/18 07:54:44;;;;;;;9.98;3.62;;;;;;;32.76;43.69;100153.04;1704536;83;21043;-38
2021/07/18 07:57:10;;;;;;;5.67;3.62;;;;;;;32.78;44.67;100152.34;1708753;83;20973;-39
2021/07/18 07:59:36;;;;;;;7.90;3.80;;;;;;;32.87;44.44;100159.28;1668325;85;20949;-40
2021/07/18 08:02:04;;;;;;;11.43;4.10;;;;;;;32.84;45.95;100163.67;1684380;83;22093;-40
2021/07/18 08:04:30;;;;;;;6.25;4.47;;;;;;;32.84;44.03;100160.98;1681282;84;21748;-39
2021/07/18 08:06:58;;;;;;;9.05;4.55;;;;;;;33.04;44.04;100155.95;1654721;85;21514;-39
2021/07/18 08:09:26;;;;;;;10.35;4.10;;;;;;;33.38;45.67;100159.11;1655391;85;21266;-39
2021/07/18 08:11:54;;;;;;;9.50;4.25;;;;;;;33.57;44.87;100156.38;1632344;86;21076;-39
2021/07/18 08:14:20;;;;;;;6.00;3.92;;;;;;;33.64;43.47;100156.47;1644933;85;21015;-39
2021/07/18 08:16:48;;;;;;;5.05;4.05;;;;;;;33.64;43.03;100156.47;1683806;85;21150;-39
2021/07/18 08:19:14;;;;;;;4.97;4.12;;;;;;;33.66;41.14;100153.94;1671857;85;21615;-39
2021/07/18 08:21:41;;;;;;;4.53;3.87;;;;;;;33.85;41.50;100154.86;1685050;85;20952;-40
2021/07/18 08:24:09;;;;;;;8.38;3.85;;;;;;;33.96;40.21;100158.41;1660585;85;21585;-40
2021/07/18 08:26:36;;;;;;;8.00;3.85;;;;;;;33.89;41.57;100153.45;1685259;85;21580;-40
2021/07/18 08:29:03;;;;;;;7.25;3.65;;;;;;;33.87;41.97;100158.19;1650465;85;22102;-40
2021/07/18 08:31:30;;;;;;;4.62;3.58;;;;;;;34.05;39.35;100158.63;1673273;85;21142;-40
2021/07/18 08:33:56;;;;;;;5.40;4.00;;;;;;;34.00;41.78;100150.82;1685726;85;21011;-39
2021/07/18 08:36:24;;;;;;;6.28;3.30;;;;;;;34.22;42.16;100153.84;1680779;85;21008;-41
2021/07/18 08:38:51;;;;;;;4.30;3.58;;;;;;;34.38;39.41;100151.93;1674339;84;21051;-41
2021/07/18 08:41:22;;;;;;;12.28;3.87;;;;;;;34.09;39.33;100155.87;1678967;85;21123;-41
2021/07/18 08:43:50;;;;;;;3.72;3.33;;;;;;;33.93;40.62;100153.39;1681460;85;21049;-40
2021/07/18 08:46:18;;;;;;;11.60;3.77;;;;;;;33.91;40.44;100152.75;1671539;85;21004;-40
2021/07/18 08:48:50;;;;;;;8.38;3.40;;;;;;;33.82;40.74;100153.38;1677130;85;21055;-40
2021/07/18 08:51:17;;;;;;;9.13;3.62;;;;;;;33.92;40.61;100155.76;1683785;85;20952;-41
2021/07/18 08:53:43;;;;;;;9.40;3.75;;;;;;;33.98;40.55;100156.39;1676840;85;21180;-38
2021/07/18 08:56:11;;;;;;;5.25;3.40;;;;;;;34.06;41.33;100153.58;1674694;85;20983;-39
2021/07/18 08:58:40;;;;;;;14.18;3.87;;;;;;;34.20;39.59;100148.33;1640093;86;21072;-40
2021/07/18 09:01:06;;;;;;;4.08;3.15;;;;;;;34.22;39.75;100148.97;1668644;86;21025;-37
2021/07/18 09:03:35;;;;;;;10.10;3.83;;;;;;;34.09;39.02;100152.34;1639456;86;20937;-40
2021/07/18 09:06:11;;;;;;;5.95;3.30;;;;;;;33.93;40.37;100148.03;1669692;83;21089;-40
2021/07/18 09:08:46;;;;;;;14.78;3.45;;;;;;;34.08;41.70;100146.17;1664965;85;21003;-39
2021/07/18 09:11:24;;;;;;;5.83;3.52;;;;;;;34.24;40.10;100142.92;1676692;84;21251;-39
2021/07/18 09:13:59;;;;;;;4.12;3.22;;;;;;;34.45;40.06;100150.13;1678035;85;21217;-39
2021/07/18 09:16:33;;;;;;;6.58;3.58;;;;;;;34.77;39.48;100149.80;1633815;86;20944;-39
2021/07/18 09:19:33;;;;;;;7.95;3.90;;;;;;;35.19;38.65;100141.28;1621836;87;21101;-40
2021/07/18 09:22:18;;;;;;;8.08;3.33;;;;;;;35.53;37.36;100144.16;1676387;84;21003;-40
2021/07/18 09:24:49;;;;;;;8.15;3.42;;;;;;;35.29;38.33;100138.77;1676639;84;20952;-38
2021/07/18 09:27:27;;;;;;;5.40;3.40;;;;;;;35.29;40.01;100139.57;1675279;84;21051;-40
2021/07/18 09:30:07;;;;;;;5.55;3.35;;;;;;;35.45;37.87;100141.63;1669877;85;21365;-40
2021/07/18 09:32:37;;;;;;;7.50;3.40;;;;;;;35.25;37.01;100145.04;1672301;84;21108;-39
2021/07/18 09:35:09;;;;;;;7.10;3.30;;;;;;;35.06;38.19;100138.53;1678503;85;20988;-39
2021/07/18 09:37:41;;;;;;;4.03;3.45;;;;;;;35.26;38.27;100137.81;1613198;86;21040;-40
2021/07/18 09:40:11;;;;;;;6.62;3.22;;;;;;;35.53;37.13;100138.28;1610676;86;21584;-39
2021/07/18 09:43:01;;;;;;;6.97;3.40;;;;;;;35.47;36.32;100137.68;1646593;85;20999;-40
2021/07/18 09:45:31;;;;;;;3.58;3.20;;;;;;;35.23;37.52;100131.78;1651070;85;21066;-41
2021/07/18 09:48:06;;;;;;;6.47;3.40;;;;;;;34.93;38.49;100130.66;1651051;85;20945;-40
2021/07/18 09:50:36;;;;;;;;;;;;;;;34.94;39.58;100130.97;1681289;85;21042;-39
2021/07/18 09:53:20;;;;;;;3.83;3.33;;;;;;;35.07;38.93;100132.13;1654270;85;20155;-40
2021/07/18 09:56:10;;;;;;;8.20;3.30;;;;;;;35.14;37.95;100134.86;1647491;85;21076;-39
2021/07/18 09:58:51;;;;;;;7.22;3.30;;;;;;;35.40;37.84;100135.48;1678395;85;21610;-40
2021/07/18 10:01:18;;;;;;;9.58;3.55;;;;;;;35.66;38.18;100128.58;1634491;85;21647;-39
2021/07/18 10:03:54;;;;;;;3.00;2.75;;;;;;;35.64;37.42;100126.61;1698236;83;21605;-39
2021/07/18 10:06:26;;;;;;;7.95;3.33;;;;;;;35.45;36.18;100124.95;1701427;84;21019;-40
2021/07/18 10:08:59;;;;;;;8.65;3.50;;;;;;;35.19;37.76;100127.02;1694885;84;20986;-39
2021/07/18 10:11:28;;;;;;;13.22;3.08;;;;;;;35.30;35.86;100121.59;1677264;84;21058;-39
2021/07/18 10:13:55;;;;;;;4.70;2.80;;;;;;;35.60;34.59;100124.83;1702486;84;21034;-38
2021/07/18 10:16:23;;;;;;;4.03;2.60;;;;;;;35.92;35.03;100120.26;1692668;83;21975;-41
2021/07/18 10:18:52;;;;;;;9.45;3.62;;;;;;;35.85;35.65;100126.16;1696724;84;20976;-39
2021/07/18 10:21:22;;;;;;;27.55;4.00;;;;;;;35.56;33.79;100119.54;1678456;84;21083;-40
2021/07/18 10:23:53;;;;;;;5.60;3.08;;;;;;;35.18;36.16;100125.36;1703084;84;21103;-40
2021/07/18 10:26:33;;;;;;;5.70;3.20;;;;;;;35.23;34.00;100122.90;1688442;83;21022;-39
2021/07/18 10:29:00;;;;;;;10.78;3.22;;;;;;;35.50;34.74;100124.36;1702993;83;22247;-40
2021/07/18 10:31:39;;;;;;;5.75;3.42;;;;;;;35.89;33.64;100120.17;1660282;85;20994;-40
2021/07/18 10:34:07;;;;;;;9.25;2.77;;;;;;;36.25;33.69;100119.49;1658652;85;20987;-39
2021/07/18 10:36:35;;;;;;;4.03;2.77;;;;;;;36.23;31.82;100120.22;1619744;87;21912;-39
2021/07/18 10:39:30;;;;;;;5.83;2.65;;;;;;;35.78;33.28;100119.41;1658818;85;21574;-39
2021/07/18 10:41:59;;;;;;;19.27;5.10;;;;;;;35.45;32.87;100110.69;1661378;85;21023;-38
2021/07/18 10:44:43;;;;;;;6.00;3.12;;;;;;;35.33;33.84;100107.74;1684657;84;21036;-38
2021/07/18 10:47:13;;;;;;;3.33;3.00;;;;;;;35.22;35.24;100109.95;1677688;84;21736;-39
2021/07/18 10:49:56;;;;;;;6.00;3.17;;;;;;;35.22;33.58;100109.95;1704752;84;21153;-39
2021/07/18 10:52:29;;;;;;;4.08;3.25;;;;;;;35.32;33.98;100110.93;1701355;84;21589;-39
2021/07/18 10:54:56;;;;;;;10.50;3.42;;;;;;;35.45;34.97;100109.34;1704661;84;20936;-39
2021/07/18 10:57:29;;;;;;;7.92;2.98;;;;;;;35.84;32.99;100105.66;1703459;84;20985;-39
2021/07/18 10:59:56;;;;;;;8.18;3.40;;;;;;;36.36;33.69;100107.27;1708055;84;20951;-39
2021/07/18 11:02:33;;;;;;;27.62;3.45;;;;;;;36.41;31.79;100103.97;1693472;84;21067;-39
2021/07/18 11:05:04;;;;;;;8.85;3.35;;;;;;;36.12;32.92;100105.50;1684040;84;21013;-40
2021/07/18 11:07:37;;;;;;;7.25;3.12;;;;;;;36.31;33.23;100098.98;1670728;85;21536;-40
2021/07/18 11:10:19;;;;;;;7.78;2.95;;;;;;;36.24;34.36;100098.98;1623706;88;20961;-39
2021/07/18 11:13:01;;;;;;;11.20;3.27;;;;;;;36.49;33.37;100092.46;1648798;85;21004;-39
2021/07/18 11:15:38;;;;;;;5.33;3.20;;;;;;;36.93;34.90;100083.92;1676854;85;21198;-39
2021/07/18 11:18:15;;;;;;;3.52;3.22;;;;;;;37.37;32.59;100085.53;1652494;85;20964;-40
2021/07/18 11:20:53;;;;;;;11.25;3.45;;;;;;;37.21;31.18;100080.92;1648468;87;20996;-40
2021/07/18 11:23:29;;;;;;;7.35;3.55;;;;;;;36.78;33.25;100074.20;1663229;85;21043;-38